createdAt,value
2017-11-26T00:00:49.322Z,4.82
2017-11-26T00:03:17.154Z,3.80
2017-11-26T00:05:44.078Z,2.62
2017-11-26T00:08:13.738Z,2.55
2017-11-26T00:10:41.694Z,2.15
2017-11-26T00:13:08.604Z,2.33
2017-11-26T00:15:35.520Z,2.30
2017-11-26T00:18:02.433Z,2.05
2017-11-26T00:20:29.336Z,1.90
2017-11-26T00:22:56.264Z,1.00
2017-11-26T00:25:25.085Z,1.70
2017-11-26T00:27:52.774Z,1.25
2017-11-26T00:30:20.608Z,1.48
2017-11-26T00:32:48.368Z,1.45
2017-11-26T00:35:15.270Z,1.80
2017-11-26T00:37:42.190Z,1.85
2017-11-26T00:40:09.092Z,1.60
2017-11-26T00:42:36.022Z,2.62
2017-11-26T00:45:03.913Z,2.92
2017-11-26T00:47:32.602Z,2.45
2017-11-26T00:50:00.271Z,3.55
2017-11-26T00:52:27.967Z,3.40
2017-11-26T00:54:54.873Z,3.95
2017-11-26T00:57:22.669Z,3.30
2017-11-26T00:59:49.585Z,4.15
2017-11-26T01:02:19.695Z,3.30
2017-11-26T01:04:46.617Z,3.58
2017-11-26T01:07:13.529Z,3.58
2017-11-26T01:09:40.450Z,4.47
2017-11-26T01:12:07.358Z,5.35
2017-11-26T01:14:34.260Z,4.82
2017-11-26T01:17:01.167Z,4.82
2017-11-26T01:19:28.848Z,6.28
2017-11-26T01:21:55.794Z,6.40
2017-11-26T01:24:22.725Z,5.95
2017-11-26T01:26:49.659Z,7.10
2017-11-26T01:29:16.579Z,8.82
2017-11-26T01:31:43.491Z,8.00
2017-11-26T01:34:10.425Z,9.88
2017-11-26T01:36:37.359Z,9.45
2017-11-26T01:39:04.287Z,10.05
2017-11-26T01:41:31.975Z,9.82
2017-11-26T01:43:59.798Z,10.07
2017-11-26T01:46:27.491Z,10.00
2017-11-26T01:48:55.309Z,10.60
2017-11-26T01:51:22.246Z,10.10
2017-11-26T01:53:49.143Z,11.35
2017-11-26T01:56:16.101Z,11.73
2017-11-26T01:58:43.936Z,10.75
2017-11-26T02:01:11.658Z,10.35
2017-11-26T02:03:51.545Z,10.25
2017-11-26T02:06:19.265Z,10.73
2017-11-26T02:08:46.956Z,11.30
2017-11-26T02:11:13.891Z,8.13
2017-11-26T02:13:40.816Z,10.13
2017-11-26T02:16:07.747Z,10.48
2017-11-26T02:18:34.667Z,10.98
2017-11-26T02:21:01.589Z,11.27
2017-11-26T02:23:30.286Z,10.73
2017-11-26T02:25:57.214Z,10.60
2017-11-26T02:28:24.892Z,11.75
2017-11-26T02:30:51.822Z,8.65
2017-11-26T02:33:31.432Z,10.52
2017-11-26T02:36:17.192Z,9.60
2017-11-26T02:38:45.106Z,9.25
2017-11-26T02:41:13.012Z,10.43
2017-11-26T02:43:39.915Z,8.60
2017-11-26T02:46:06.856Z,7.70
2017-11-26T02:48:35.680Z,8.70
2017-11-26T02:51:02.623Z,7.40
2017-11-26T02:53:29.539Z,7.90
2017-11-26T02:55:56.466Z,3.55
2017-11-26T02:58:23.378Z,7.60
2017-11-26T03:00:50.284Z,7.75
2017-11-26T03:03:17.954Z,8.40
2017-11-26T03:05:45.648Z,7.87
2017-11-26T03:08:12.550Z,7.12
2017-11-26T03:10:40.241Z,6.80
2017-11-26T03:13:07.150Z,7.50
2017-11-26T03:15:34.079Z,8.60
2017-11-26T03:18:00.986Z,9.10
2017-11-26T03:20:27.923Z,8.80
2017-11-26T03:22:54.831Z,9.27
2017-11-26T03:25:22.518Z,7.07
2017-11-26T03:27:49.440Z,8.60
2017-11-26T03:30:17.128Z,9.32
2017-11-26T03:32:44.042Z,9.02
2017-11-26T03:35:11.769Z,10.02
2017-11-26T03:37:38.689Z,9.65
2017-11-26T03:40:05.638Z,10.00
2017-11-26T03:42:33.571Z,8.82
2017-11-26T03:45:01.263Z,9.73
2017-11-26T03:47:29.094Z,10.43
2017-11-26T03:49:56.003Z,10.70
2017-11-26T03:52:22.900Z,9.55
2017-11-26T03:54:50.706Z,10.68
2017-11-26T03:57:17.651Z,10.55
2017-11-26T03:59:44.561Z,9.13
2017-11-26T04:02:11.487Z,10.48
2017-11-26T04:04:39.186Z,8.25
2017-11-26T04:07:06.102Z,10.20
2017-11-26T04:09:33.023Z,11.80
2017-11-26T04:11:59.954Z,9.90
2017-11-26T04:14:26.881Z,10.70
2017-11-26T04:16:53.815Z,10.68
2017-11-26T04:19:20.729Z,10.60
2017-11-26T04:21:48.572Z,10.38
2017-11-26T04:24:16.258Z,11.90
2017-11-26T04:26:43.191Z,11.70
2017-11-26T04:29:10.855Z,11.93
2017-11-26T04:31:42.000Z,14.73
2017-11-26T04:34:08.926Z,12.18
2017-11-26T04:36:36.610Z,10.88
2017-11-26T04:39:03.533Z,10.52
2017-11-26T04:41:31.228Z,11.65
2017-11-26T04:43:58.144Z,10.10
2017-11-26T04:46:25.832Z,11.88
2017-11-26T04:48:52.765Z,12.82
2017-11-26T04:51:19.697Z,11.68
2017-11-26T04:53:47.390Z,9.50
2017-11-26T04:56:14.325Z,11.85
2017-11-26T04:58:41.249Z,11.70
2017-11-26T05:01:08.186Z,12.90
2017-11-26T05:03:35.882Z,11.40
2017-11-26T05:06:02.806Z,12.80
2017-11-26T05:08:30.490Z,11.05
2017-11-26T05:10:57.416Z,8.95
2017-11-26T05:13:24.322Z,12.37
2017-11-26T05:15:51.262Z,13.62
2017-11-26T05:18:18.220Z,10.50
2017-11-26T05:20:45.154Z,10.45
2017-11-26T05:23:12.052Z,9.07
2017-11-26T05:25:38.970Z,7.43
2017-11-26T05:28:06.654Z,11.10
2017-11-26T05:30:33.612Z,10.50
2017-11-26T05:33:01.437Z,10.63
2017-11-26T05:35:29.134Z,10.75
2017-11-26T05:37:56.029Z,12.43
2017-11-26T05:40:22.949Z,9.43
2017-11-26T05:42:49.894Z,9.85
2017-11-26T05:45:16.819Z,11.18
2017-11-26T05:47:44.742Z,10.50
2017-11-26T05:50:12.449Z,11.60
2017-11-26T05:52:39.385Z,10.30
2017-11-26T05:55:06.313Z,9.95
2017-11-26T05:57:33.231Z,11.50
2017-11-26T06:00:00.153Z,11.85
2017-11-26T06:02:27.059Z,10.88
2017-11-26T06:04:53.992Z,12.35
2017-11-26T06:07:20.904Z,12.20
2017-11-26T06:09:47.820Z,11.35
2017-11-26T06:12:14.726Z,11.23
2017-11-26T06:14:42.595Z,11.07
2017-11-26T06:17:10.432Z,10.02
2017-11-26T06:19:37.359Z,7.95
2017-11-26T06:22:05.052Z,11.70
2017-11-26T06:24:32.000Z,13.43
2017-11-26T06:26:59.688Z,9.93
2017-11-26T06:29:26.614Z,11.57
2017-11-26T06:31:53.560Z,10.57
2017-11-26T06:34:20.485Z,11.32
2017-11-26T06:36:49.071Z,11.77
2017-11-26T06:39:16.768Z,10.85
2017-11-26T06:41:43.677Z,12.30
2017-11-26T06:44:11.361Z,8.95
2017-11-26T06:46:38.291Z,11.32
2017-11-26T06:49:05.229Z,11.18
2017-11-26T06:51:32.912Z,11.90
2017-11-26T06:53:59.838Z,10.75
2017-11-26T06:56:28.510Z,11.43
2017-11-26T06:58:56.199Z,10.43
2017-11-26T07:01:23.108Z,10.68
2017-11-26T07:03:53.060Z,11.43
2017-11-26T07:06:19.962Z,10.30
2017-11-26T07:08:48.892Z,11.40
2017-11-26T07:11:17.767Z,10.15
2017-11-26T07:13:45.463Z,10.30
2017-11-26T07:16:12.377Z,10.80
2017-11-26T07:18:40.064Z,9.88
2017-11-26T07:21:06.986Z,11.75
2017-11-26T07:23:33.932Z,12.13
2017-11-26T07:26:01.804Z,11.40
2017-11-26T07:28:29.667Z,13.27
2017-11-26T07:30:56.614Z,12.20
2017-11-26T07:33:25.546Z,10.98
2017-11-26T07:35:52.486Z,12.60
2017-11-26T07:38:19.421Z,10.60
2017-11-26T07:40:46.351Z,12.65
2017-11-26T07:43:15.521Z,12.68
2017-11-26T07:45:42.568Z,12.37
2017-11-26T07:48:09.526Z,12.00
2017-11-26T07:50:37.360Z,11.05
2017-11-26T07:53:04.284Z,11.10
2017-11-26T07:55:31.199Z,10.50
2017-11-26T07:57:58.243Z,11.48
2017-11-26T08:00:25.171Z,11.77
2017-11-26T08:02:52.081Z,10.68
2017-11-26T08:05:19.003Z,10.23
2017-11-26T08:07:45.940Z,10.15
2017-11-26T08:10:12.858Z,11.57
2017-11-26T08:12:39.789Z,11.63
2017-11-26T08:15:07.646Z,12.65
2017-11-26T08:17:36.244Z,10.70
2017-11-26T08:20:03.156Z,10.90
2017-11-26T08:22:30.076Z,9.75
2017-11-26T08:24:56.991Z,11.63
2017-11-26T08:27:23.936Z,11.27
2017-11-26T08:29:54.561Z,10.73
2017-11-26T08:32:21.484Z,11.35
2017-11-26T08:34:49.165Z,10.23
2017-11-26T08:37:16.305Z,11.02
2017-11-26T08:39:43.218Z,12.00
2017-11-26T08:42:10.139Z,11.75
2017-11-26T08:44:40.149Z,12.70
2017-11-26T08:47:07.065Z,13.80
2017-11-26T08:49:33.982Z,13.75
2017-11-26T08:52:01.695Z,10.77
2017-11-26T08:54:28.620Z,12.15
2017-11-26T08:56:55.545Z,10.55
2017-11-26T08:59:22.478Z,11.38
2017-11-26T09:01:50.948Z,11.10
2017-11-26T09:04:18.814Z,11.32
2017-11-26T09:06:45.739Z,10.77
2017-11-26T09:09:13.523Z,10.85
2017-11-26T09:11:40.436Z,10.63
2017-11-26T09:14:08.328Z,12.02
2017-11-26T09:16:36.258Z,8.63
2017-11-26T09:19:03.182Z,11.02
2017-11-26T09:21:30.831Z,11.88
2017-11-26T09:23:58.681Z,11.63
2017-11-26T09:26:26.382Z,13.02
2017-11-26T09:28:53.289Z,12.02
2017-11-26T09:31:20.987Z,8.98
2017-11-26T09:33:47.906Z,8.75
2017-11-26T09:36:14.868Z,10.75
2017-11-26T09:38:41.773Z,10.85
2017-11-26T09:41:08.722Z,11.30
2017-11-26T09:43:36.419Z,10.02
2017-11-26T09:46:03.390Z,10.85
2017-11-26T09:48:31.304Z,11.40
2017-11-26T09:50:58.993Z,10.63
2017-11-26T09:53:25.957Z,10.50
2017-11-26T09:55:52.903Z,10.00
2017-11-26T09:58:19.824Z,11.00
2017-11-26T10:00:46.742Z,10.90
2017-11-26T10:03:14.412Z,10.90
2017-11-26T10:05:42.121Z,11.48
2017-11-26T10:08:09.045Z,10.77
2017-11-26T10:10:35.993Z,9.38
2017-11-26T10:13:04.850Z,8.52
2017-11-26T10:15:32.548Z,10.10
2017-11-26T10:17:59.460Z,10.63
2017-11-26T10:20:26.396Z,10.77
2017-11-26T10:22:54.079Z,9.80
2017-11-26T10:25:21.014Z,8.63
2017-11-26T10:27:48.689Z,9.50
2017-11-26T10:30:15.617Z,9.82
2017-11-26T10:32:43.392Z,5.78
2017-11-26T10:35:12.277Z,10.43
2017-11-26T10:37:39.194Z,8.68
2017-11-26T10:40:06.111Z,9.35
2017-11-26T10:42:34.963Z,8.57
2017-11-26T10:45:01.881Z,6.87
2017-11-26T10:47:29.545Z,7.65
2017-11-26T10:49:56.488Z,7.65
2017-11-26T10:52:23.404Z,6.87
2017-11-26T10:54:50.323Z,8.02
2017-11-26T10:57:18.017Z,9.10
2017-11-26T10:59:46.936Z,8.55
2017-11-26T11:02:14.716Z,7.65
2017-11-26T11:04:42.580Z,6.90
2017-11-26T11:07:09.493Z,8.38
2017-11-26T11:09:37.245Z,6.72
2017-11-26T11:12:04.271Z,6.82
2017-11-26T11:14:31.212Z,7.78
2017-11-26T11:16:58.120Z,8.25
2017-11-26T11:19:25.036Z,6.57
2017-11-26T11:21:52.719Z,6.50
2017-11-26T11:24:22.031Z,8.35
2017-11-26T11:26:48.934Z,6.93
2017-11-26T11:29:15.860Z,9.00
2017-11-26T11:31:42.780Z,6.75
2017-11-26T11:34:09.710Z,7.85
2017-11-26T11:36:36.776Z,6.45
2017-11-26T11:39:03.762Z,7.82
2017-11-26T11:41:30.730Z,6.80
2017-11-26T11:44:01.195Z,5.28
2017-11-26T11:46:29.163Z,6.25
2017-11-26T11:48:56.112Z,6.20
2017-11-26T11:51:23.053Z,6.85
2017-11-26T11:53:51.026Z,7.18
2017-11-26T11:56:17.986Z,8.80
2017-11-26T11:58:44.948Z,7.18
2017-11-26T12:01:11.878Z,6.70
2017-11-26T12:03:38.818Z,7.07
2017-11-26T12:06:05.927Z,6.85
2017-11-26T12:08:32.870Z,6.57
2017-11-26T12:11:00.835Z,7.10
2017-11-26T12:13:27.835Z,8.02
2017-11-26T12:15:54.751Z,6.47
2017-11-26T12:18:23.654Z,5.75
2017-11-26T12:20:50.594Z,6.35
2017-11-26T12:23:19.394Z,5.57
2017-11-26T12:25:46.330Z,7.62
2017-11-26T12:28:15.406Z,7.20
2017-11-26T12:30:44.275Z,7.03
2017-11-26T12:33:11.976Z,5.60
2017-11-26T12:35:39.903Z,6.78
2017-11-26T12:38:08.605Z,5.85
2017-11-26T12:40:35.532Z,4.90
2017-11-26T12:43:03.224Z,4.90
2017-11-26T12:45:30.152Z,5.00
2017-11-26T12:47:57.977Z,5.43
2017-11-26T12:50:24.924Z,5.60
2017-11-26T12:52:51.896Z,4.32
2017-11-26T12:55:23.133Z,3.45
2017-11-26T12:57:50.817Z,3.30
2017-11-26T13:00:18.156Z,2.95
2017-11-26T13:02:45.856Z,2.65
2017-11-26T13:05:15.110Z,3.00
2017-11-26T13:07:42.790Z,2.87
2017-11-26T13:10:10.659Z,3.25
2017-11-26T13:12:37.575Z,2.65
2017-11-26T13:15:05.427Z,3.67
2017-11-26T13:17:32.341Z,3.87
2017-11-26T13:19:59.274Z,2.65
2017-11-26T13:22:29.337Z,3.28
2017-11-26T13:24:57.063Z,2.90
2017-11-26T13:27:23.990Z,4.05
2017-11-26T13:29:50.912Z,1.90
2017-11-26T13:32:18.937Z,3.72
2017-11-26T13:34:46.849Z,3.67
2017-11-26T13:37:14.608Z,2.60
2017-11-26T13:39:42.303Z,1.58
2017-11-26T13:42:09.237Z,1.33
2017-11-26T13:44:36.159Z,2.00
2017-11-26T13:47:03.855Z,1.73
2017-11-26T13:49:35.095Z,1.12
2017-11-26T13:52:01.998Z,1.35
2017-11-26T13:54:28.918Z,1.67
2017-11-26T13:56:55.856Z,1.50
2017-11-26T13:59:24.251Z,2.12
2017-11-26T14:01:51.180Z,1.30
2017-11-26T14:04:18.109Z,1.48
2017-11-26T14:06:45.022Z,3.28
2017-11-26T14:09:12.705Z,2.03
2017-11-26T14:11:39.621Z,2.28
2017-11-26T14:14:08.340Z,2.37
2017-11-26T14:16:35.480Z,1.77
2017-11-26T14:19:08.271Z,1.37
2017-11-26T14:21:35.983Z,1.52
2017-11-26T14:24:04.789Z,1.75
2017-11-26T14:26:32.470Z,1.30
2017-11-26T14:29:01.872Z,1.90
2017-11-26T14:31:29.827Z,1.92
2017-11-26T14:33:57.664Z,1.25
2017-11-26T14:36:25.567Z,1.60
2017-11-26T14:38:52.512Z,1.40
2017-11-26T14:41:21.393Z,1.55
2017-11-26T14:43:51.646Z,1.30
2017-11-26T14:46:18.622Z,1.45
2017-11-26T14:48:45.582Z,1.20
2017-11-26T14:51:12.517Z,1.30
2017-11-26T14:53:39.446Z,1.37
2017-11-26T14:56:06.357Z,1.35
2017-11-26T14:58:33.272Z,1.05
2017-11-26T15:01:00.962Z,0.70
2017-11-26T15:03:27.872Z,1.52
2017-11-26T15:05:59.616Z,1.65
2017-11-26T15:08:28.549Z,1.33
2017-11-26T15:10:55.453Z,1.42
2017-11-26T15:13:22.401Z,1.85
2017-11-26T15:15:49.351Z,1.70
2017-11-26T15:18:18.982Z,0.73
2017-11-26T15:20:46.731Z,1.30
2017-11-26T15:23:14.425Z,1.30
2017-11-26T15:25:41.359Z,1.95
2017-11-26T15:28:08.287Z,1.85
2017-11-26T15:30:37.898Z,1.10
2017-11-26T15:33:05.618Z,0.70
2017-11-26T15:35:33.446Z,1.60
2017-11-26T15:38:02.350Z,1.00
2017-11-26T15:40:29.263Z,1.17
2017-11-26T15:42:56.233Z,0.68
2017-11-26T15:45:23.165Z,1.10
2017-11-26T15:47:50.097Z,0.90
2017-11-26T15:50:17.029Z,1.00
2017-11-26T15:52:44.716Z,1.35
2017-11-26T15:55:11.646Z,1.20
2017-11-26T15:57:40.318Z,1.02
2017-11-26T16:00:09.567Z,1.50
2017-11-26T16:02:37.488Z,1.02
2017-11-26T16:05:04.512Z,1.90
2017-11-26T16:07:32.346Z,1.70
2017-11-26T16:10:02.422Z,1.25
2017-11-26T16:12:30.323Z,2.12
2017-11-26T16:14:57.234Z,1.60
2017-11-26T16:17:24.956Z,1.65
2017-11-26T16:19:53.113Z,1.70
2017-11-26T16:22:20.080Z,1.50
2017-11-26T16:24:47.994Z,1.95
2017-11-26T16:27:14.961Z,2.25
2017-11-26T16:29:42.899Z,1.92
2017-11-26T16:32:11.798Z,1.70
2017-11-26T16:34:39.649Z,2.15
2017-11-26T16:37:10.400Z,1.90
2017-11-26T16:39:41.780Z,1.35
2017-11-26T16:42:09.709Z,2.50
2017-11-26T16:44:37.407Z,1.40
2017-11-26T16:47:04.367Z,1.55
2017-11-26T16:49:34.697Z,1.50
2017-11-26T16:52:01.942Z,1.33
2017-11-26T16:54:32.013Z,1.33
2017-11-26T16:56:59.001Z,1.83
2017-11-26T16:59:34.427Z,1.27
2017-11-26T17:02:01.369Z,1.45
2017-11-26T17:04:28.313Z,1.23
2017-11-26T17:06:55.247Z,1.52
2017-11-26T17:09:22.178Z,1.20
2017-11-26T17:11:51.807Z,1.25
2017-11-26T17:14:18.756Z,1.33
2017-11-26T17:16:45.708Z,0.85
2017-11-26T17:19:15.278Z,1.02
2017-11-26T17:21:44.394Z,1.10
2017-11-26T17:24:11.422Z,1.40
2017-11-26T17:26:38.416Z,1.35
2017-11-26T17:29:10.786Z,2.50
2017-11-26T17:31:37.956Z,1.90
2017-11-26T17:34:04.887Z,1.30
2017-11-26T17:36:31.830Z,1.55
2017-11-26T17:38:59.975Z,1.67
2017-11-26T17:41:27.731Z,1.67
2017-11-26T17:44:00.506Z,0.93
2017-11-26T17:46:29.583Z,1.95
2017-11-26T17:48:57.314Z,1.80
2017-11-26T17:51:24.250Z,1.95
2017-11-26T17:53:51.252Z,1.75
2017-11-26T17:56:18.453Z,1.20
2017-11-26T17:58:45.381Z,1.87
2017-11-26T18:01:12.338Z,2.05
2017-11-26T18:03:39.244Z,2.53
2017-11-26T18:06:06.170Z,2.00
2017-11-26T18:08:33.107Z,2.60
2017-11-26T18:11:00.819Z,2.90
2017-11-26T18:13:27.777Z,4.20
2017-11-26T18:15:55.622Z,4.70
2017-11-26T18:18:26.290Z,3.90
2017-11-26T18:20:53.225Z,6.53
2017-11-26T18:23:20.170Z,5.10
2017-11-26T18:25:47.125Z,5.50
2017-11-26T18:28:14.052Z,6.15
2017-11-26T18:30:41.010Z,8.18
2017-11-26T18:33:14.154Z,4.28
2017-11-26T18:35:41.097Z,5.47
2017-11-26T18:38:08.776Z,5.28
2017-11-26T18:40:41.929Z,5.22
2017-11-26T18:43:08.883Z,3.90
2017-11-26T18:45:36.577Z,3.37
2017-11-26T18:48:03.523Z,3.40
2017-11-26T18:50:30.477Z,2.28
2017-11-26T18:52:57.412Z,3.08
2017-11-26T18:55:24.356Z,3.00
2017-11-26T18:57:51.268Z,2.67
2017-11-26T19:00:20.182Z,1.98
2017-11-26T19:02:49.066Z,1.58
2017-11-26T19:05:16.915Z,1.65
2017-11-26T19:07:43.827Z,2.45
2017-11-26T19:10:10.783Z,1.25
2017-11-26T19:12:39.688Z,2.05
2017-11-26T19:15:07.385Z,2.35
2017-11-26T19:17:34.296Z,1.10
2017-11-26T19:20:01.243Z,1.58
2017-11-26T19:22:28.191Z,1.52
2017-11-26T19:24:55.140Z,0.80
2017-11-26T19:27:22.054Z,1.02
2017-11-26T19:29:48.961Z,1.00
2017-11-26T19:32:15.914Z,1.73
2017-11-26T19:34:43.851Z,1.00
2017-11-26T19:37:10.820Z,1.30
2017-11-26T19:39:40.974Z,1.83
2017-11-26T19:42:11.433Z,1.25
2017-11-26T19:44:38.385Z,1.50
2017-11-26T19:47:08.624Z,1.33
2017-11-26T19:49:35.601Z,1.95
2017-11-26T19:52:03.328Z,1.67
2017-11-26T19:54:30.283Z,1.33
2017-11-26T19:56:57.206Z,1.67
2017-11-26T19:59:25.214Z,1.48
2017-11-26T20:01:52.145Z,1.58
2017-11-26T20:04:19.093Z,0.90
2017-11-26T20:06:47.032Z,1.65
2017-11-26T20:09:14.221Z,1.58
2017-11-26T20:11:41.130Z,1.40
2017-11-26T20:14:08.809Z,1.23
2017-11-26T20:16:35.733Z,1.50
2017-11-26T20:19:02.662Z,0.95
2017-11-26T20:21:33.420Z,0.82
2017-11-26T20:24:00.355Z,1.10
2017-11-26T20:26:27.358Z,1.50
2017-11-26T20:28:55.256Z,1.83
2017-11-26T20:31:22.190Z,0.70
2017-11-26T20:33:50.115Z,0.80
2017-11-26T20:36:17.041Z,1.15
2017-11-26T20:38:43.978Z,0.77
2017-11-26T20:41:10.912Z,0.70
2017-11-26T20:43:37.820Z,0.70
2017-11-26T20:46:05.493Z,1.37
2017-11-26T20:48:32.469Z,1.70
2017-11-26T20:50:59.376Z,1.08
2017-11-26T20:53:27.063Z,1.52
2017-11-26T20:55:56.051Z,1.35
2017-11-26T20:58:25.266Z,0.88
2017-11-26T21:00:53.570Z,2.35
2017-11-26T21:03:21.466Z,1.67
2017-11-26T21:05:48.404Z,1.40
2017-11-26T21:08:15.383Z,1.20
2017-11-26T21:10:42.369Z,2.08
2017-11-26T21:13:12.059Z,1.85
2017-11-26T21:15:38.991Z,1.35
2017-11-26T21:18:07.025Z,2.50
2017-11-26T21:20:34.005Z,2.67
2017-11-26T21:23:00.967Z,2.00
2017-11-26T21:25:27.883Z,2.10
2017-11-26T21:27:54.805Z,4.40
2017-11-26T21:30:22.660Z,1.48
2017-11-26T21:32:54.291Z,1.80
2017-11-26T21:35:21.218Z,1.83
2017-11-26T21:37:48.165Z,1.42
2017-11-26T21:40:15.117Z,1.30
2017-11-26T21:42:47.985Z,1.52
2017-11-26T21:45:14.894Z,1.40
2017-11-26T21:47:43.810Z,1.55
2017-11-26T21:50:10.746Z,1.50
2017-11-26T21:52:38.236Z,1.48
2017-11-26T21:55:06.101Z,1.00
2017-11-26T21:57:33.024Z,0.90
2017-11-26T21:59:59.961Z,1.83
2017-11-26T22:02:27.833Z,0.80
2017-11-26T22:04:54.733Z,0.80
2017-11-26T22:07:22.659Z,0.80
2017-11-26T22:09:49.565Z,0.98
2017-11-26T22:12:18.276Z,0.70
2017-11-26T22:14:45.213Z,1.00
2017-11-26T22:17:14.120Z,0.62
2017-11-26T22:19:41.684Z,1.00
2017-11-26T22:22:08.697Z,0.70
2017-11-26T22:24:35.620Z,0.82
2017-11-26T22:27:02.549Z,0.93
2017-11-26T22:29:29.464Z,1.10
2017-11-26T22:31:56.383Z,0.75
2017-11-26T22:34:23.311Z,0.88
2017-11-26T22:36:50.225Z,0.77
2017-11-26T22:39:17.129Z,0.60
2017-11-26T22:41:44.082Z,0.70
2017-11-26T22:44:11.022Z,0.82
2017-11-26T22:46:38.851Z,0.95
2017-11-26T22:49:08.468Z,1.25
2017-11-26T22:51:36.149Z,0.95
2017-11-26T22:54:03.078Z,1.00
2017-11-26T22:56:30.781Z,2.67
2017-11-26T22:58:57.709Z,1.00
2017-11-26T23:01:24.643Z,1.87
2017-11-26T23:03:51.574Z,1.65
2017-11-26T23:06:19.266Z,2.53
2017-11-26T23:08:46.170Z,2.50
2017-11-26T23:11:13.860Z,0.80
2017-11-26T23:13:40.782Z,2.05
2017-11-26T23:16:08.500Z,1.15
2017-11-26T23:18:36.418Z,1.37
2017-11-26T23:21:04.108Z,1.60
2017-11-26T23:23:31.020Z,2.20
2017-11-26T23:25:58.715Z,2.08
2017-11-26T23:28:26.534Z,1.65
2017-11-26T23:30:53.456Z,2.87
2017-11-26T23:33:20.371Z,2.85
2017-11-26T23:35:47.307Z,2.72
2017-11-26T23:38:14.228Z,2.90
2017-11-26T23:40:43.518Z,3.72
2017-11-26T23:43:11.190Z,2.50
2017-11-26T23:45:38.866Z,3.30
2017-11-26T23:48:05.787Z,3.70
2017-11-26T23:50:33.485Z,3.55
2017-11-26T23:53:00.395Z,3.58
2017-11-26T23:55:28.089Z,3.33
2017-11-26T23:57:55.922Z,4.45
